Time;durP1;ratioP1;P1;durP2;ratioP2;P2;SDS_P1;SDS_P2;PMS_P1;PMS_P2;Temp;Humidity;BMP_temperature;BMP_pressure;BME280_temperature;BME280_humidity;BME280_pressure;Samples;Min_cycle;Max_cycle;Signal;HPM_P1;HPM_P2
2022/06/14 00:00:53;;;;;;;4.65;2.70;;;26.00;57.30;;;;;;4956535;28;20078;-74
2022/06/14 00:02:22;;;;;;;6.25;3.05;;;26.00;57.70;;;;;;4956445;28;20063;-73
2022/06/14 00:04:48;;;;;;;8.05;3.00;;;26.00;58.00;;;;;;4956572;28;20070;-75
2022/06/14 00:07:14;;;;;;;5.00;2.88;;;25.90;58.30;;;;;;4956449;28;20030;-73
2022/06/14 00:09:40;;;;;;;10.23;3.20;;;25.90;58.80;;;;;;4956243;28;20027;-73
2022/06/14 00:12:06;;;;;;;7.47;3.40;;;25.90;59.20;;;;;;4955497;28;20051;-74
2022/06/14 00:18:21;;;;;;;6.85;3.70;;;25.80;59.60;;;;;;4956598;29;20178;-75
2022/06/14 00:20:48;;;;;;;6.68;3.50;;;25.90;59.50;;;;;;4955977;28;20082;-73
2022/06/14 00:23:16;;;;;;;6.97;3.70;;;25.80;59.20;;;;;;4956362;28;20469;-73
2022/06/14 00:25:47;;;;;;;7.07;3.70;;;25.80;59.20;;;;;;4955738;28;20054;-74
2022/06/14 00:28:16;;;;;;;9.13;4.28;;;25.80;58.80;;;;;;4956214;28;20031;-74
2022/06/14 00:30:44;;;;;;;6.65;4.20;;;25.70;59.00;;;;;;4955951;28;20027;-74
2022/06/14 00:33:10;;;;;;;7.20;4.43;;;25.70;59.00;;;;;;4955910;28;20106;-73
2022/06/14 00:35:36;;;;;;;7.28;4.30;;;25.70;58.90;;;;;;4955779;28;20545;-75
2022/06/14 00:38:03;;;;;;;9.50;4.22;;;25.70;58.80;;;;;;4956215;28;20062;-74
2022/06/14 00:40:33;;;;;;;13.02;4.22;;;25.70;59.10;;;;;;4956246;28;20075;-73
2022/06/14 00:43:02;;;;;;;9.30;4.93;;;25.70;59.10;;;;;;4956383;28;20383;-74
2022/06/14 00:45:28;;;;;;;15.32;3.88;;;25.70;58.90;;;;;;4956078;28;20094;-75
2022/06/14 00:48:03;;;;;;;11.57;3.92;;;25.70;59.10;;;;;;4956047;28;20551;-73
2022/06/14 00:50:39;;;;;;;9.60;4.47;;;25.70;59.30;;;;;;4955974;28;20028;-73
2022/06/14 00:53:17;;;;;;;7.32;4.13;;;25.70;59.10;;;;;;4956007;28;20047;-73
2022/06/14 00:55:49;;;;;;;14.45;5.68;;;25.70;59.20;;;;;;4956062;28;20023;-74
2022/06/14 00:58:53;;;;;;;10.20;4.83;;;25.70;59.10;;;;;;4955447;28;20102;-74
2022/06/14 01:01:25;;;;;;;7.95;4.65;;;25.70;59.40;;;;;;4937926;28;20166;-74
2022/06/14 01:03:56;;;;;;;9.13;4.80;;;25.60;59.30;;;;;;4955726;28;20027;-75
2022/06/14 01:06:41;;;;;;;11.88;4.82;;;25.70;59.40;;;;;;4955624;28;20078;-75
2022/06/14 01:09:20;;;;;;;13.45;4.70;;;25.70;59.60;;;;;;4955256;28;20767;-74
2022/06/14 01:12:01;;;;;;;6.70;4.47;;;25.60;59.40;;;;;;4955478;28;20039;-73
2022/06/14 01:14:49;;;;;;;8.98;4.55;;;25.60;59.70;;;;;;4953873;28;20070;-74
2022/06/14 01:17:15;;;;;;;9.02;4.50;;;25.50;59.80;;;;;;4955375;28;20089;-74
2022/06/14 01:19:42;;;;;;;11.15;4.32;;;25.50;59.60;;;;;;4955387;28;20027;-74
2022/06/14 01:22:08;;;;;;;9.48;5.05;;;25.50;59.60;;;;;;4954904;28;20058;-74
2022/06/14 01:24:36;;;;;;;15.85;5.57;;;25.50;59.20;;;;;;4970064;28;20039;-76
2022/06/14 01:27:08;;;;;;;10.27;5.22;;;25.50;59.10;;;;;;4955273;28;20037;-76
2022/06/14 01:29:36;;;;;;;10.90;4.97;;;25.50;58.80;;;;;;4955361;28;20159;-73
2022/06/14 01:32:07;;;;;;;10.73;5.13;;;25.50;58.90;;;;;;4955109;28;20150;-75
2022/06/14 01:34:38;;;;;;;12.13;5.38;;;25.40;58.50;;;;;;4955023;28;20115;-74
2022/06/14 01:37:04;;;;;;;10.48;5.05;;;25.40;58.20;;;;;;4954842;28;20024;-74
2022/06/14 01:39:30;;;;;;;9.93;5.13;;;25.40;58.00;;;;;;4954963;28;20122;-74
2022/06/14 01:51:50;;;;;;;12.65;5.85;;;25.40;57.20;;;;;;4955379;29;20042;-73
2022/06/14 01:51:59;;;;;;;8.13;5.68;;;25.40;58.00;;;;;;4955186;28;20044;-73
2022/06/14 01:54:30;;;;;;;8.90;5.30;;;25.40;57.40;;;;;;4955462;28;20501;-74
2022/06/14 01:57:10;;;;;;;9.40;5.65;;;25.30;57.50;;;;;;4954657;28;20035;-73
2022/06/14 01:59:41;;;;;;;10.15;5.93;;;25.30;57.30;;;;;;4954676;28;20024;-75
2022/06/14 02:02:42;;;;;;;12.68;5.45;;;25.30;57.40;;;;;;4969493;28;20027;-74
2022/06/14 02:05:28;;;;;;;9.13;5.68;;;25.30;57.60;;;;;;4954660;28;20047;-73
2022/06/14 02:08:07;;;;;;;12.90;5.70;;;25.20;57.50;;;;;;4954633;28;20385;-73
2022/06/14 02:10:56;;;;;;;10.77;5.60;;;25.20;57.50;;;;;;4954690;28;20442;-74
2022/06/14 02:13:27;;;;;;;12.88;5.70;;;25.20;57.20;;;;;;4954855;28;20028;-76
2022/06/14 02:16:05;;;;;;;12.93;6.38;;;25.20;57.10;;;;;;4954674;28;20090;-75
2022/06/14 02:18:47;;;;;;;11.68;5.78;;;25.20;56.80;;;;;;4954530;28;20032;-73
2022/06/14 02:21:18;;;;;;;20.10;7.20;;;25.20;56.90;;;;;;4953278;28;20052;-74
2022/06/14 02:23:51;;;;;;;11.02;5.80;;;25.10;56.80;;;;;;4954410;28;20058;-73
2022/06/14 02:26:26;;;;;;;15.55;6.80;;;25.00;56.90;;;;;;4954431;28;20047;-77
2022/06/14 02:29:10;;;;;;;13.43;6.13;;;25.00;56.90;;;;;;4954403;28;20031;-74
2022/06/14 02:31:44;;;;;;;9.70;5.40;;;25.00;57.00;;;;;;4954461;28;20027;-74
2022/06/14 02:34:15;;;;;;;10.88;6.85;;;25.00;56.70;;;;;;4954329;28;20642;-74
2022/06/14 02:37:04;;;;;;;12.13;6.63;;;25.00;56.50;;;;;;4957950;28;20497;-74
2022/06/14 02:39:36;;;;;;;10.82;5.85;;;25.00;56.50;;;;;;4958367;28;20114;-75
2022/06/14 02:42:12;;;;;;;14.88;7.32;;;25.00;56.40;;;;;;4958470;28;20039;-74
2022/06/14 02:44:54;;;;;;;13.80;8.00;;;25.00;56.10;;;;;;4957984;28;20102;-74
2022/06/14 02:47:44;;;;;;;14.50;8.85;;;25.00;56.10;;;;;;4972862;28;20142;-73
2022/06/14 02:50:24;;;;;;;15.40;8.18;;;25.00;55.80;;;;;;4957948;28;20023;-74
2022/06/14 02:53:18;;;;;;;13.98;8.52;;;25.00;56.10;;;;;;4957992;28;20023;-74
2022/06/14 02:55:51;;;;;;;17.85;8.88;;;24.90;55.80;;;;;;4949954;29;20130;-74
2022/06/14 02:58:45;;;;;;;25.92;10.20;;;24.90;55.90;;;;;;4958048;28;20026;-74
2022/06/14 03:01:26;;;;;;;22.23;9.90;;;24.90;55.80;;;;;;4927576;28;20048;-73
2022/06/14 03:04:15;;;;;;;13.40;8.70;;;24.80;55.70;;;;;;4957558;28;20029;-74
2022/06/14 03:07:08;;;;;;;13.13;8.02;;;24.70;55.50;;;;;;4957094;29;20039;-75
2022/06/14 03:09:36;;;;;;;14.43;8.48;;;24.70;55.50;;;;;;4950889;28;20066;-72
2022/06/14 03:12:08;;;;;;;11.90;7.80;;;24.70;55.60;;;;;;4956190;28;20027;-73
2022/06/14 03:14:53;;;;;;;13.13;7.35;;;24.80;55.50;;;;;;4957846;28;20028;-74
2022/06/14 03:18:22;;;;;;;10.70;6.80;;;24.80;55.60;;;;;;4957633;28;20103;-74
2022/06/14 03:20:54;;;;;;;14.52;6.50;;;24.80;55.60;;;;;;4935905;29;20063;-75
2022/06/14 03:23:50;;;;;;;13.82;7.53;;;24.80;55.50;;;;;;4953869;28;20047;-74
2022/06/14 03:26:44;;;;;;;13.45;7.38;;;24.80;55.20;;;;;;4957067;28;20047;-74
2022/06/14 03:29:15;;;;;;;15.70;7.78;;;24.80;55.20;;;;;;4957253;28;20031;-74
2022/06/14 03:31:50;;;;;;;11.00;6.40;;;24.80;55.40;;;;;;4957162;28;20030;-74
2022/06/14 03:34:28;;;;;;;12.52;6.95;;;24.80;55.20;;;;;;4957075;28;20055;-77
2022/06/14 03:36:55;;;;;;;14.45;6.40;;;24.80;55.20;;;;;;4956992;28;20030;-75
2022/06/14 03:39:24;;;;;;;12.80;7.35;;;24.70;55.40;;;;;;4957318;28;20035;-76
2022/06/14 03:41:53;;;;;;;13.35;7.88;;;24.70;55.40;;;;;;4957121;28;20027;-75
2022/06/14 03:44:21;;;;;;;11.40;6.60;;;24.70;55.30;;;;;;4957063;28;20165;-76
2022/06/14 03:46:51;;;;;;;11.13;6.40;;;24.70;55.40;;;;;;4955790;28;20028;-77
2022/06/14 03:49:25;;;;;;;12.20;6.30;;;24.70;55.30;;;;;;4956994;28;20020;-75
2022/06/14 03:52:05;;;;;;;10.43;5.70;;;24.70;55.30;;;;;;4956984;28;20449;-75
2022/06/14 03:54:51;;;;;;;14.45;5.70;;;24.70;55.10;;;;;;4956930;28;20042;-77
2022/06/14 03:57:48;;;;;;;13.85;7.03;;;24.70;55.10;;;;;;4957188;28;20110;-76
2022/06/14 04:00:35;;;;;;;9.68;5.80;;;24.70;55.10;;;;;;4956664;28;20456;-77
2022/06/14 04:03:44;;;;;;;13.32;5.80;;;24.70;54.70;;;;;;4956832;28;20031;-77
2022/06/14 04:06:44;;;;;;;12.48;6.30;;;24.70;54.60;;;;;;4956736;28;20482;-75
2022/06/14 04:09:26;;;;;;;13.85;6.35;;;24.70;54.40;;;;;;4956452;28;20038;-76
2022/06/14 04:11:58;;;;;;;10.68;5.78;;;24.70;54.20;;;;;;4956526;28;20233;-77
2022/06/14 04:14:38;;;;;;;10.43;5.78;;;24.70;54.20;;;;;;4956490;28;20031;-75
2022/06/14 04:17:20;;;;;;;12.48;5.45;;;24.70;54.70;;;;;;4956603;28;20028;-76
2022/06/14 04:20:15;;;;;;;15.23;4.93;;;24.70;53.90;;;;;;4956368;28;20031;-75
2022/06/14 04:22:46;;;;;;;13.73;5.32;;;24.60;53.90;;;;;;4948347;28;20055;-75
2022/06/14 04:25:37;;;;;;;9.77;4.70;;;24.60;54.00;;;;;;4971211;28;20114;-77
2022/06/14 04:28:09;;;;;;;9.40;4.80;;;24.60;54.50;;;;;;4957592;28;20066;-75
2022/06/14 04:30:59;;;;;;;10.63;5.22;;;24.50;53.70;;;;;;4956433;28;20062;-75
2022/06/14 04:33:29;;;;;;;12.00;4.80;;;24.50;54.10;;;;;;4956220;28;20035;-74
2022/06/14 04:36:06;;;;;;;11.02;4.50;;;24.40;54.00;;;;;;4956117;28;20031;-76
2022/06/14 04:38:40;;;;;;;13.38;4.43;;;24.40;53.90;;;;;;4956034;28;20028;-73
2022/06/14 04:41:18;;;;;;;;;;;24.40;54.00;;;;;;4956295;28;20098;-75
2022/06/14 04:44:15;;;;;;;6.43;3.50;;;24.50;53.40;;;;;;4956129;28;19906;-76
2022/06/14 04:46:58;;;;;;;8.88;4.05;;;24.50;53.00;;;;;;4933245;28;20082;-75
2022/06/14 04:49:31;;;;;;;8.97;3.83;;;24.50;53.40;;;;;;4955804;28;20050;-76
2022/06/14 04:52:30;;;;;;;9.43;3.97;;;24.50;52.70;;;;;;4955766;28;20078;-76
2022/06/14 04:55:08;;;;;;;8.48;4.25;;;24.50;52.60;;;;;;4953068;29;20444;-74
2022/06/14 04:57:43;;;;;;;10.05;4.03;;;24.50;53.30;;;;;;4955579;28;20070;-73
2022/06/14 05:00:35;;;;;;;8.57;4.13;;;24.50;53.40;;;;;;4955669;28;20031;-74
2022/06/14 05:03:13;;;;;;;10.88;4.75;;;24.60;53.40;;;;;;4955678;28;20034;-74
2022/06/14 05:05:47;;;;;;;9.35;5.05;;;24.70;53.60;;;;;;4955707;28;20035;-74
2022/06/14 05:08:35;;;;;;;9.63;4.95;;;24.80;52.70;;;;;;4970137;28;20126;-72
2022/06/14 05:11:12;;;;;;;7.55;4.45;;;24.80;53.40;;;;;;4953992;28;20047;-73
2022/06/14 05:13:59;;;;;;;11.07;4.80;;;25.00;53.40;;;;;;4955440;28;20031;-73
2022/06/14 05:16:40;;;;;;;10.00;4.93;;;25.10;54.20;;;;;;4954061;28;20027;-74
2022/06/14 05:19:18;;;;;;;11.40;5.15;;;25.40;53.20;;;;;;4955387;28;20535;-73
2022/06/14 05:22:09;;;;;;;14.15;5.13;;;25.80;52.40;;;;;;4955107;28;20123;-73
2022/06/14 05:24:37;;;;;;;10.52;5.72;;;26.30;51.60;;;;;;4955085;28;20035;-73
2022/06/14 05:27:13;;;;;;;9.15;5.25;;;26.70;52.10;;;;;;4955015;28;20027;-75
2022/06/14 05:29:44;;;;;;;14.25;5.80;;;27.10;49.70;;;;;;4955302;28;20034;-74
2022/06/14 05:32:22;;;;;;;10.45;5.18;;;27.30;50.60;;;;;;4955121;28;20019;-74
2022/06/14 05:35:16;;;;;;;8.23;5.13;;;27.50;48.80;;;;;;4955501;28;20055;-74
2022/06/14 05:37:57;;;;;;;9.50;5.05;;;27.60;48.90;;;;;;4954729;28;20036;-75
2022/06/14 05:40:39;;;;;;;10.75;5.07;;;27.80;48.50;;;;;;4954851;28;20032;-76
2022/06/14 05:43:34;;;;;;;11.70;5.45;;;28.10;48.10;;;;;;4968682;28;20519;-74
2022/06/14 05:46:08;;;;;;;13.35;5.18;;;28.50;47.60;;;;;;4967372;28;20058;-75
2022/06/14 05:48:51;;;;;;;18.90;6.65;;;29.00;48.50;;;;;;4974160;28;20023;-74
2022/06/14 05:51:27;;;;;;;21.58;5.63;;;29.30;46.60;;;;;;4974259;28;20045;-74
2022/06/14 05:53:55;;;;;;;20.42;6.10;;;29.50;47.40;;;;;;4974545;28;20030;-76
2022/06/14 05:56:41;;;;;;;14.30;5.57;;;29.40;47.30;;;;;;4974172;28;20381;-73
2022/06/14 05:59:49;;;;;;;13.27;4.68;;;29.40;46.90;;;;;;4973900;28;20605;-75
2022/06/14 06:02:25;;;;;;;9.13;4.97;;;29.60;45.70;;;;;;4952848;29;20035;-73
2022/06/14 06:04:54;;;;;;;10.45;4.40;;;29.70;45.10;;;;;;4970763;28;20484;-74
2022/06/14 06:07:26;;;;;;;17.25;5.55;;;29.70;46.00;;;;;;4973946;28;20531;-74
2022/06/14 06:10:05;;;;;;;15.63;5.38;;;30.10;46.00;;;;;;4973321;28;20524;-77
2022/06/14 06:12:39;;;;;;;10.90;4.38;;;30.40;44.50;;;;;;4972468;28;20026;-74
2022/06/14 06:15:14;;;;;;;11.95;4.78;;;30.50;45.00;;;;;;4973417;28;20105;-72
2022/06/14 06:17:52;;;;;;;14.55;4.28;;;30.70;44.30;;;;;;4973826;28;20018;-74
2022/06/14 06:20:37;;;;;;;9.38;4.10;;;30.80;44.00;;;;;;4973528;28;20046;-75
2022/06/14 06:23:06;;;;;;;12.68;4.38;;;31.00;43.70;;;;;;4973827;28;20030;-73
2022/06/14 06:25:41;;;;;;;14.10;4.40;;;30.90;43.70;;;;;;4973749;28;20101;-74
2022/06/14 06:28:31;;;;;;;12.10;4.10;;;31.00;43.00;;;;;;4973326;28;20396;-74
2022/06/14 06:31:09;;;;;;;11.18;4.38;;;31.00;43.00;;;;;;4973382;28;20027;-74
2022/06/14 06:33:37;;;;;;;8.20;4.35;;;31.10;42.70;;;;;;4973480;28;20046;-74
2022/06/14 06:36:31;;;;;;;9.02;3.80;;;31.20;43.00;;;;;;4973198;28;20030;-74
2022/06/14 06:39:32;;;;;;;14.05;4.60;;;31.10;42.30;;;;;;4973372;28;20065;-73
2022/06/14 06:42:31;;;;;;;20.63;6.93;;;31.40;42.20;;;;;;4973277;28;20445;-73
2022/06/14 06:45:14;;;;;;;22.67;5.25;;;31.60;41.90;;;;;;4973367;28;20045;-73
2022/06/14 06:48:13;;;;;;;23.15;7.15;;;31.90;41.60;;;;;;4973342;28;20476;-74
2022/06/14 06:50:47;;;;;;;16.70;5.50;;;32.00;41.30;;;;;;4961949;28;20038;-74
2022/06/14 06:53:15;;;;;;;13.98;4.65;;;31.90;41.30;;;;;;4973885;28;20062;-74
2022/06/14 06:55:53;;;;;;;11.73;6.20;;;31.90;40.80;;;;;;4973348;28;20102;-74
2022/06/14 06:58:57;;;;;;;13.25;4.35;;;32.00;40.90;;;;;;4973622;28;20118;-76
2022/06/14 07:01:32;;;;;;;12.75;4.88;;;31.90;39.90;;;;;;4969757;28;20122;-73
2022/06/14 07:04:20;;;;;;;14.57;5.55;;;31.80;40.40;;;;;;4973631;28;20046;-72
2022/06/14 07:06:55;;;;;;;16.00;5.63;;;31.80;40.50;;;;;;4973319;28;20039;-74
2022/06/14 07:09:42;;;;;;;13.95;5.95;;;31.90;40.30;;;;;;4973233;28;20042;-74
2022/06/14 07:12:19;;;;;;;21.08;7.55;;;31.90;40.00;;;;;;4973132;28;20042;-75
2022/06/14 07:15:00;;;;;;;12.98;4.15;;;32.10;40.10;;;;;;4973497;28;20439;-74
2022/06/14 07:17:39;;;;;;;16.77;5.88;;;32.10;38.80;;;;;;4973248;28;20404;-76
2022/06/14 07:20:11;;;;;;;18.02;8.13;;;32.10;40.30;;;;;;4973079;28;20023;-76
2022/06/14 07:22:42;;;;;;;20.60;6.38;;;32.20;39.70;;;;;;4976355;28;20026;-74
2022/06/14 07:25:15;;;;;;;13.15;5.10;;;32.30;39.60;;;;;;4976670;28;20036;-76
2022/06/14 07:28:03;;;;;;;12.93;5.15;;;32.40;39.30;;;;;;4976830;28;20026;-75
2022/06/14 07:30:35;;;;;;;10.30;4.57;;;32.50;39.50;;;;;;4977214;28;20074;-75
2022/06/14 07:33:01;;;;;;;18.10;6.40;;;32.60;38.30;;;;;;4978077;28;20031;-74
2022/06/14 07:35:31;;;;;;;13.07;4.95;;;32.60;39.40;;;;;;4977682;28;20415;-76
2022/06/14 07:38:07;;;;;;;10.35;4.28;;;32.60;38.50;;;;;;4976937;28;20034;-74
2022/06/14 07:40:41;;;;;;;19.27;8.00;;;32.60;38.30;;;;;;4977456;28;20058;-74
2022/06/14 07:43:28;;;;;;;21.00;7.03;;;32.70;38.60;;;;;;4976531;28;20561;-74
2022/06/14 07:45:57;;;;;;;9.93;3.47;;;32.70;39.00;;;;;;4977024;28;20039;-75
2022/06/14 07:48:41;;;;;;;12.38;5.10;;;32.70;38.30;;;;;;4975238;28;20058;-75
2022/06/14 07:51:25;;;;;;;14.13;4.70;;;32.70;38.90;;;;;;4974946;28;20125;-76
2022/06/14 07:53:55;;;;;;;10.18;3.90;;;32.60;38.40;;;;;;4976560;28;20093;-75
2022/06/14 07:56:31;;;;;;;18.42;6.07;;;32.50;38.30;;;;;;4976173;28;20125;-75
2022/06/14 07:59:10;;;;;;;16.30;3.63;;;32.50;38.60;;;;;;4976130;28;20505;-75
2022/06/14 08:01:54;;;;;;;12.10;4.32;;;32.30;38.60;;;;;;4975984;28;20047;-76
2022/06/14 08:04:54;;;;;;;15.63;4.85;;;32.20;38.90;;;;;;4974662;28;20356;-77
2022/06/14 08:07:20;;;;;;;12.55;5.18;;;32.20;39.00;;;;;;4972257;28;20492;-74
2022/06/14 08:10:08;;;;;;;14.13;4.75;;;32.10;38.60;;;;;;4975819;28;20034;-75
2022/06/14 08:12:37;;;;;;;14.02;5.78;;;32.10;38.90;;;;;;4974504;28;20054;-75
2022/06/14 08:15:21;;;;;;;12.40;3.75;;;32.00;39.20;;;;;;4975497;28;20392;-76
2022/06/14 08:18:01;;;;;;;15.93;5.10;;;31.90;38.70;;;;;;4975608;28;20035;-75
2022/06/14 08:20:39;;;;;;;8.48;3.85;;;31.90;39.20;;;;;;4975444;28;20051;-76
2022/06/14 08:23:12;;;;;;;17.50;7.10;;;31.80;39.40;;;;;;4975436;28;20078;-75
2022/06/14 08:25:44;;;;;;;11.25;4.22;;;31.70;39.20;;;;;;4975602;28;20061;-76
2022/06/14 08:28:20;;;;;;;8.98;3.92;;;31.60;39.00;;;;;;4975425;28;20019;-76
2022/06/14 08:31:01;;;;;;;7.32;3.78;;;31.60;38.90;;;;;;4975129;28;20473;-75
2022/06/14 08:33:44;;;;;;;9.65;3.60;;;31.40;39.30;;;;;;4974595;28;20105;-75
2022/06/14 08:36:17;;;;;;;13.15;4.82;;;31.30;39.30;;;;;;4975151;28;20095;-75
2022/06/14 08:39:08;;;;;;;14.60;4.22;;;31.20;39.40;;;;;;4975134;28;20031;-75
2022/06/14 08:41:53;;;;;;;13.00;4.07;;;31.20;39.30;;;;;;4972512;28;20045;-75
2022/06/14 08:44:22;;;;;;;8.18;3.80;;;31.10;39.50;;;;;;4974798;28;20062;-76
2022/06/14 08:47:04;;;;;;;8.18;3.67;;;31.10;39.70;;;;;;4973734;28;20055;-77
2022/06/14 08:49:50;;;;;;;13.00;3.83;;;31.00;39.70;;;;;;4974772;28;20369;-76
2022/06/14 08:52:35;;;;;;;10.88;4.50;;;30.90;39.70;;;;;;4974973;28;20031;-75
2022/06/14 08:55:10;;;;;;;14.45;4.95;;;30.90;40.20;;;;;;4974920;28;20038;-75
2022/06/14 08:57:58;;;;;;;11.32;4.50;;;30.90;40.30;;;;;;4974937;28;20547;-74
2022/06/14 09:00:38;;;;;;;11.52;3.70;;;30.90;40.70;;;;;;4974878;28;20073;-75
2022/06/14 09:03:48;;;;;;;8.13;3.45;;;30.80;40.30;;;;;;4975139;28;20062;-74
2022/06/14 09:06:45;;;;;;;9.88;3.78;;;30.60;40.40;;;;;;4974680;28;20038;-77
2022/06/14 09:09:53;;;;;;;12.23;3.80;;;30.60;39.80;;;;;;4974856;28;20376;-76
2022/06/14 09:12:45;;;;;;;11.10;5.82;;;30.60;39.50;;;;;;4970033;28;20043;-74
2022/06/14 09:15:16;;;;;;;9.95;3.35;;;30.50;39.70;;;;;;4975063;28;20123;-76
2022/06/14 09:17:59;;;;;;;9.15;4.05;;;30.50;39.60;;;;;;4975092;28;20058;-75
2022/06/14 09:20:44;;;;;;;11.23;4.18;;;30.60;39.80;;;;;;4974291;28;20186;-75
2022/06/14 09:23:18;;;;;;;14.35;3.80;;;30.70;39.80;;;;;;4974333;28;20031;-74
2022/06/14 09:26:05;;;;;;;7.72;3.00;;;30.80;39.50;;;;;;4974157;28;20035;-76
2022/06/14 09:29:06;;;;;;;7.22;3.40;;;30.80;39.50;;;;;;4974181;28;20031;-74
2022/06/14 09:31:43;;;;;;;7.45;2.65;;;30.80;39.20;;;;;;4974372;28;20054;-75
2022/06/14 09:34:37;;;;;;;6.93;2.90;;;30.80;39.00;;;;;;4974300;28;20027;-75
2022/06/14 09:37:40;;;;;;;6.85;2.88;;;30.70;39.10;;;;;;4974069;28;20043;-74
2022/06/14 09:40:10;;;;;;;6.38;3.40;;;30.60;38.90;;;;;;4973142;28;20043;-75
2022/06/14 09:42:51;;;;;;;10.27;2.95;;;30.60;39.20;;;;;;4974236;28;20057;-76
2022/06/14 09:45:51;;;;;;;10.05;3.20;;;30.70;38.90;;;;;;4973055;28;20043;-74
2022/06/14 09:48:34;;;;;;;12.18;4.07;;;30.70;38.90;;;;;;4974305;28;20081;-74
2022/06/14 09:51:23;;;;;;;9.65;3.47;;;30.80;39.00;;;;;;4974223;28;20031;-76
2022/06/14 09:54:10;;;;;;;7.85;2.80;;;31.00;38.90;;;;;;4958804;28;20039;-77
2022/06/14 09:57:15;;;;;;;11.80;3.15;;;31.00;38.30;;;;;;4974292;28;20023;-77
2022/06/14 09:59:55;;;;;;;13.70;3.45;;;31.10;38.10;;;;;;4973966;28;20046;-76
2022/06/14 10:02:51;;;;;;;7.68;3.10;;;31.10;38.30;;;;;;4972957;28;20054;-76
2022/06/14 10:05:34;;;;;;;8.88;3.67;;;31.10;38.00;;;;;;4939232;28;20062;-76
2022/06/14 10:08:26;;;;;;;9.05;3.35;;;31.10;38.60;;;;;;4974576;28;20019;-79
2022/06/14 10:11:09;;;;;;;6.40;3.15;;;31.10;38.30;;;;;;4974126;28;20500;-76
2022/06/14 10:14:12;;;;;;;11.88;3.50;;;31.20;38.60;;;;;;4973068;28;20054;-76
2022/06/14 10:17:26;;;;;;;8.70;3.55;;;31.20;38.50;;;;;;4973295;28;20061;-77
2022/06/14 10:20:45;;;;;;;7.03;2.72;;;31.30;38.30;;;;;;4971872;28;20390;-76
2022/06/14 10:23:36;;;;;;;6.97;2.50;;;31.40;37.30;;;;;;4973054;28;20259;-79
2022/06/14 10:32:05;;;;;;;5.35;2.22;;;31.50;37.00;;;;;;4816365;26;20054;-79
2022/06/14 10:35:15;;;;;;;5.93;2.28;;;31.50;36.80;;;;;;4994265;28;20088;-77
2022/06/14 10:38:12;;;;;;;5.00;2.25;;;31.60;36.30;;;;;;4992514;28;20026;-77
2022/06/14 10:41:09;;;;;;;7.43;2.33;;;31.60;36.60;;;;;;5033007;23;20045;-76
2022/06/14 10:44:09;;;;;;;9.70;2.92;;;31.60;36.70;;;;;;5038639;28;20061;-76
2022/06/14 10:46:43;;;;;;;8.75;2.83;;;31.70;37.00;;;;;;5033177;28;20030;-76
2022/06/14 10:49:30;;;;;;;10.55;2.58;;;31.80;35.90;;;;;;5047965;28;20057;-76
2022/06/14 10:52:26;;;;;;;10.32;2.20;;;31.90;37.00;;;;;;5032708;28;20034;-75
2022/06/14 10:55:29;;;;;;;6.38;2.22;;;31.90;36.70;;;;;;5013481;28;20041;-77
2022/06/14 10:58:44;;;;;;;6.07;2.80;;;31.80;36.60;;;;;;5036690;28;20060;-77
2022/06/14 11:02:05;;;;;;;11.27;2.75;;;31.90;37.20;;;;;;5027993;28;20118;-76
2022/06/14 11:04:53;;;;;;;8.57;2.40;;;32.00;37.90;;;;;;5036736;28;20038;-76
2022/06/14 11:07:43;;;;;;;7.18;2.85;;;32.20;36.70;;;;;;5036545;28;20116;-76
2022/06/14 11:10:19;;;;;;;4.60;2.10;;;32.20;38.00;;;;;;5036136;28;20032;-78
2022/06/14 11:13:23;;;;;;;4.70;2.45;;;32.20;36.70;;;;;;5036330;28;20028;-76
2022/06/14 11:16:32;;;;;;;5.82;2.25;;;32.30;38.70;;;;;;5036116;28;20082;-78
2022/06/14 11:19:43;;;;;;;6.53;2.60;;;32.30;38.90;;;;;;5035551;28;20025;-78
2022/06/14 11:22:39;;;;;;;7.00;2.55;;;32.30;39.10;;;;;;5028103;28;20091;-78
2022/06/14 11:25:26;;;;;;;6.45;2.60;;;32.40;38.90;;;;;;5036636;28;20028;-76
2022/06/14 11:31:36;;;;;;;8.43;2.50;;;32.40;40.10;;;;;;5036116;28;20431;-75
2022/06/14 11:34:53;;;;;;;;;;;;;;;;;;;;;
2022/06/14 11:37:41;;;;;;;12.38;2.75;;;32.50;40.60;;;;;;5036299;28;20033;-77
2022/06/14 11:40:24;;;;;;;6.10;2.50;;;32.60;40.60;;;;;;5035550;28;20054;-76
2022/06/14 11:43:08;;;;;;;;;;;32.70;41.10;;;;;;5035644;28;20475;-76
2022/06/14 11:46:14;;;;;;;4.75;2.35;;;32.70;40.70;;;;;;5035145;28;19905;-75
2022/06/14 11:49:07;;;;;;;7.28;2.67;;;32.60;40.20;;;;;;5031084;28;20036;-76
2022/06/14 11:51:46;;;;;;;8.93;2.45;;;32.60;40.90;;;;;;5034990;28;20021;-77
2022/06/14 11:54:20;;;;;;;7.22;2.22;;;32.60;40.90;;;;;;5035038;28;20033;-75
2022/06/14 11:57:17;;;;;;;8.05;2.60;;;32.70;40.00;;;;;;5033696;28;20038;-75
2022/06/14 12:00:12;;;;;;;5.97;2.25;;;32.70;40.60;;;;;;5034852;28;20026;-74
2022/06/14 12:02:57;;;;;;;7.93;2.40;;;32.80;40.40;;;;;;5034621;28;20030;-75
2022/06/14 12:05:32;;;;;;;5.93;2.35;;;32.80;40.40;;;;;;5034780;28;20033;-76
2022/06/14 12:08:39;;;;;;;7.30;2.45;;;32.80;40.40;;;;;;5034171;28;20029;-75
2022/06/14 12:11:24;;;;;;;6.60;2.45;;;32.80;39.90;;;;;;5023483;28;20031;-76
2022/06/14 12:14:27;;;;;;;5.97;2.80;;;32.80;39.90;;;;;;5035011;28;20033;-77
2022/06/14 12:17:04;;;;;;;8.03;2.40;;;32.90;40.80;;;;;;5034371;28;20108;-76
2022/06/14 12:19:33;;;;;;;8.80;2.33;;;32.90;40.70;;;;;;5034272;28;20087;-76
2022/06/14 12:22:36;;;;;;;12.25;2.45;;;32.90;40.20;;;;;;5034846;28;20536;-75
2022/06/14 12:28:10;;;;;;;7.28;2.53;;;32.90;41.50;;;;;;5034528;28;20033;-77
2022/06/14 12:30:41;;;;;;;7.05;2.38;;;32.90;40.10;;;;;;5034216;28;20025;-74
2022/06/14 12:33:45;;;;;;;10.43;2.63;;;32.90;40.10;;;;;;5034292;28;20108;-75
2022/06/14 12:36:11;;;;;;;17.45;2.63;;;32.90;41.30;;;;;;5023042;28;20056;-76
2022/06/14 12:38:41;;;;;;;9.80;2.35;;;32.90;40.50;;;;;;5034308;28;20017;-74
2022/06/14 12:41:14;;;;;;;6.88;2.20;;;32.90;40.40;;;;;;5034068;28;20049;-75
2022/06/14 12:43:52;;;;;;;7.95;2.65;;;32.90;40.90;;;;;;5034130;28;20029;-75
2022/06/14 12:46:24;;;;;;;8.88;2.42;;;32.90;41.00;;;;;;5034230;28;20029;-74
2022/06/14 12:48:56;;;;;;;7.33;2.40;;;32.90;40.10;;;;;;5033941;28;20035;-76
2022/06/14 12:51:38;;;;;;;8.07;2.25;;;32.90;39.90;;;;;;5033812;28;20030;-75
2022/06/14 12:54:12;;;;;;;9.02;2.45;;;33.00;40.40;;;;;;5034020;28;20032;-76
2022/06/14 12:56:49;;;;;;;12.55;2.55;;;33.00;39.90;;;;;;5033687;28;20414;-75
2022/06/14 12:59:33;;;;;;;6.22;1.98;;;33.00;40.30;;;;;;5033596;28;20026;-77
2022/06/14 13:02:20;;;;;;;6.85;2.50;;;33.00;40.40;;;;;;5033792;28;20060;-75
2022/06/14 13:05:09;;;;;;;9.57;2.28;;;33.00;40.20;;;;;;5033534;28;20029;-76
2022/06/14 13:08:02;;;;;;;10.13;2.08;;;33.00;39.20;;;;;;5029321;28;20109;-75
2022/06/14 13:11:03;;;;;;;6.28;2.20;;;32.90;40.10;;;;;;5033661;28;20526;-74
2022/06/14 13:13:50;;;;;;;8.95;2.15;;;32.90;40.00;;;;;;5033405;28;20025;-75
2022/06/14 13:16:28;;;;;;;4.63;2.03;;;33.00;40.10;;;;;;5033599;28;20116;-75
2022/06/14 13:19:13;;;;;;;5.63;2.10;;;33.00;40.00;;;;;;5033552;28;20025;-75
2022/06/14 13:22:03;;;;;;;9.48;2.38;;;32.90;39.00;;;;;;5033421;28;20092;-75
2022/06/14 13:24:57;;;;;;;9.00;1.88;;;32.90;39.80;;;;;;5033888;28;20505;-74
2022/06/14 13:27:32;;;;;;;7.78;2.20;;;32.90;39.80;;;;;;5033636;28;20021;-76
2022/06/14 13:30:20;;;;;;;10.40;2.28;;;32.90;39.00;;;;;;5033392;28;20386;-75
2022/06/14 13:33:24;;;;;;;7.13;1.60;;;32.80;39.30;;;;;;5033402;28;20120;-76
2022/06/14 13:36:05;;;;;;;5.10;1.90;;;32.80;39.20;;;;;;5033307;28;20033;-74
2022/06/14 13:38:48;;;;;;;8.75;2.38;;;32.80;39.30;;;;;;5032995;28;20032;-77
2022/06/14 13:41:27;;;;;;;5.07;1.60;;;32.70;39.40;;;;;;5032786;28;20053;-75
2022/06/14 13:43:58;;;;;;;8.88;1.50;;;32.80;39.00;;;;;;5033319;28;20029;-75
2022/06/14 13:46:34;;;;;;;8.57;1.75;;;32.80;39.30;;;;;;5033046;28;20033;-75
2022/06/14 13:49:05;;;;;;;4.10;1.70;;;32.80;40.00;;;;;;5032994;28;20033;-75
2022/06/14 13:51:30;;;;;;;7.60;2.10;;;32.70;39.90;;;;;;5033360;28;20025;-76
2022/06/14 13:54:21;;;;;;;8.55;2.00;;;32.70;40.30;;;;;;5033300;28;20033;-75
2022/06/14 13:56:59;;;;;;;6.40;1.90;;;32.70;41.10;;;;;;5032897;28;20033;-75
2022/06/14 13:59:30;;;;;;;6.10;2.28;;;32.70;41.60;;;;;;5032624;28;20132;-76
2022/06/14 14:02:05;;;;;;;7.07;2.22;;;32.60;41.40;;;;;;5032972;28;20060;-75
2022/06/14 14:04:36;;;;;;;8.80;2.15;;;32.60;42.00;;;;;;5032895;28;20036;-75
2022/06/14 14:07:27;;;;;;;10.32;2.40;;;32.60;42.40;;;;;;5032680;28;20132;-74
2022/06/14 14:10:04;;;;;;;7.55;2.55;;;32.60;42.40;;;;;;5029289;28;20034;-75
2022/06/14 14:12:36;;;;;;;9.18;2.50;;;32.60;42.40;;;;;;5032782;28;20029;-74
2022/06/14 14:15:49;;;;;;;9.68;2.28;;;32.60;42.60;;;;;;5014734;28;20433;-75
2022/06/14 14:18:30;;;;;;;9.70;2.15;;;32.50;43.00;;;;;;5030115;28;20064;-75
2022/06/14 14:21:14;;;;;;;11.13;2.53;;;32.50;43.20;;;;;;5030198;28;20030;-75